Time;durP1;ratioP1;P1;durP2;ratioP2;P2;SDS_P1;SDS_P2;PMS_P1;PMS_P2;Temp;Humidity;BMP_temperature;BMP_pressure;BME280_temperature;BME280_humidity;BME280_pressure;Samples;Min_cycle;Max_cycle;Signal;HPM_P1;HPM_P2
2022/05/19 00:01:35;;;;;;;1.47;0.90;;;22.80;82.80;;;;;;5026568;28;20486;-74
2022/05/19 00:04:02;;;;;;;1.50;0.90;;;22.80;82.50;;;;;;5029707;28;20815;-73
2022/05/19 00:06:29;;;;;;;1.47;0.90;;;22.80;82.70;;;;;;5027229;28;20861;-73
2022/05/19 00:08:55;;;;;;;1.50;0.90;;;22.80;82.40;;;;;;5023491;28;20889;-73
2022/05/19 00:11:32;;;;;;;1.50;0.90;;;22.80;82.70;;;;;;5011763;28;21076;-74
2022/05/19 00:13:59;;;;;;;1.47;0.90;;;22.80;82.70;;;;;;5012962;28;20556;-74
2022/05/19 00:16:29;;;;;;;1.50;0.90;;;22.70;82.50;;;;;;5024016;28;20459;-73
2022/05/19 00:18:56;;;;;;;1.47;0.90;;;22.70;83.20;;;;;;5028271;28;20929;-74
2022/05/19 00:21:22;;;;;;;1.50;0.90;;;22.70;83.00;;;;;;5028851;28;20490;-73
2022/05/19 00:23:50;;;;;;;1.50;0.90;;;22.70;83.10;;;;;;5027552;28;20462;-73
2022/05/19 00:26:17;;;;;;;1.47;0.90;;;22.60;83.00;;;;;;5027660;28;20496;-73
2022/05/19 00:28:44;;;;;;;1.43;0.90;;;22.60;83.20;;;;;;5029733;28;20482;-74
2022/05/19 00:31:11;;;;;;;1.43;0.90;;;22.60;83.40;;;;;;5027099;28;20587;-73
2022/05/19 00:33:39;;;;;;;1.50;0.97;;;22.50;83.50;;;;;;5030362;28;20514;-74
2022/05/19 00:36:11;;;;;;;1.47;1.03;;;22.50;83.50;;;;;;5023098;28;20468;-74
2022/05/19 00:38:38;;;;;;;1.50;0.90;;;22.50;83.80;;;;;;5017293;28;20464;-74
2022/05/19 00:41:05;;;;;;;1.50;0.90;;;22.50;83.90;;;;;;5011959;28;20487;-73
2022/05/19 00:43:36;;;;;;;1.47;0.90;;;22.40;84.10;;;;;;5008794;28;20467;-73
2022/05/19 00:46:08;;;;;;;1.43;0.90;;;22.40;84.10;;;;;;5029001;28;20934;-74
2022/05/19 00:48:45;;;;;;;1.47;0.90;;;22.40;84.30;;;;;;5030256;28;20467;-74
2022/05/19 00:51:14;;;;;;;1.50;1.00;;;22.30;84.70;;;;;;5025946;28;21050;-74
2022/05/19 00:53:45;;;;;;;1.47;1.00;;;22.30;84.30;;;;;;5029753;28;20471;-74
2022/05/19 00:56:16;;;;;;;1.50;0.90;;;22.30;84.70;;;;;;5025196;28;20468;-73
2022/05/19 00:58:47;;;;;;;1.50;0.90;;;22.20;85.20;;;;;;5028817;28;20470;-73
2022/05/19 01:01:14;;;;;;;1.50;0.90;;;22.20;85.00;;;;;;5027481;28;20479;-74
2022/05/19 01:03:47;;;;;;;1.47;0.90;;;22.20;85.00;;;;;;5024844;28;20463;-74
2022/05/19 01:06:20;;;;;;;1.60;1.23;;;22.20;85.00;;;;;;5026153;28;20483;-73
2022/05/19 01:08:53;;;;;;;1.50;0.90;;;22.20;84.80;;;;;;5016846;28;20463;-75
2022/05/19 01:11:19;;;;;;;1.47;0.90;;;22.10;85.10;;;;;;5027293;28;20673;-74
2022/05/19 01:13:46;;;;;;;1.50;0.90;;;22.10;85.20;;;;;;5029302;28;20505;-74
2022/05/19 01:16:14;;;;;;;1.50;0.90;;;22.10;85.20;;;;;;5024131;28;20451;-74
2022/05/19 01:18:43;;;;;;;1.43;0.90;;;22.10;85.20;;;;;;5028423;28;20470;-74
2022/05/19 01:21:13;;;;;;;1.43;0.90;;;22.10;85.10;;;;;;5027391;28;20492;-74
2022/05/19 01:23:57;;;;;;;1.50;1.00;;;22.00;85.30;;;;;;5023672;28;20491;-74
2022/05/19 01:26:42;;;;;;;1.40;0.87;;;22.00;84.60;;;;;;5023637;28;21034;-73
2022/05/19 01:29:13;;;;;;;1.50;1.00;;;22.00;84.90;;;;;;5020241;28;20466;-74
2022/05/19 01:31:47;;;;;;;1.43;0.90;;;22.00;84.80;;;;;;5008357;28;20493;-74
2022/05/19 01:34:14;;;;;;;1.47;0.90;;;22.00;84.60;;;;;;5024984;28;20460;-73
2022/05/19 01:36:41;;;;;;;1.47;0.90;;;22.00;84.80;;;;;;5017425;28;20478;-74
2022/05/19 01:39:11;;;;;;;1.47;0.90;;;22.00;84.90;;;;;;5022200;28;20474;-74
2022/05/19 01:41:49;;;;;;;1.50;1.00;;;22.00;84.90;;;;;;5022942;28;20460;-73
2022/05/19 01:44:34;;;;;;;1.47;0.90;;;22.00;85.20;;;;;;5020078;28;20459;-74
2022/05/19 01:47:09;;;;;;;1.50;1.00;;;21.90;85.10;;;;;;5028117;28;21021;-74
2022/05/19 01:49:41;;;;;;;1.50;0.90;;;21.90;85.30;;;;;;5024560;28;20502;-74
2022/05/19 01:52:17;;;;;;;1.40;0.90;;;21.90;85.30;;;;;;5026102;28;20463;-73
2022/05/19 01:54:52;;;;;;;1.47;0.90;;;21.90;85.40;;;;;;5028744;28;20558;-73
2022/05/19 01:57:27;;;;;;;1.43;0.90;;;21.80;85.30;;;;;;5021314;28;20971;-74
2022/05/19 02:00:01;;;;;;;1.47;0.90;;;21.80;85.30;;;;;;5027144;28;20495;-73
2022/05/19 02:02:37;;;;;;;1.50;0.90;;;21.80;85.50;;;;;;5027895;28;20494;-73
2022/05/19 02:05:09;;;;;;;1.40;0.90;;;21.80;85.20;;;;;;5027896;28;20907;-73
2022/05/19 02:07:38;;;;;;;1.43;0.90;;;21.80;85.10;;;;;;5019703;28;20507;-72
2022/05/19 02:10:10;;;;;;;1.47;0.90;;;21.80;85.10;;;;;;5024817;28;20920;-74
2022/05/19 02:12:40;;;;;;;1.50;1.00;;;21.80;84.70;;;;;;5025207;28;20467;-73
2022/05/19 02:15:09;;;;;;;1.47;0.90;;;21.80;85.00;;;;;;5027977;28;20463;-74
2022/05/19 02:17:38;;;;;;;1.43;0.90;;;21.80;84.90;;;;;;5000146;28;20484;-73
2022/05/19 02:20:09;;;;;;;1.43;0.90;;;21.80;84.70;;;;;;5026680;28;20748;-74
2022/05/19 02:22:38;;;;;;;1.47;0.90;;;21.80;84.70;;;;;;5025942;28;20834;-74
2022/05/19 02:25:14;;;;;;;1.50;0.90;;;21.80;84.50;;;;;;5027300;28;20467;-74
2022/05/19 02:27:48;;;;;;;1.47;0.90;;;21.80;84.70;;;;;;5026694;28;20489;-73
2022/05/19 02:30:19;;;;;;;1.43;0.90;;;21.80;84.60;;;;;;5031167;28;20485;-75
2022/05/19 02:32:46;;;;;;;1.50;0.90;;;21.80;85.00;;;;;;5031191;28;20498;-74
2022/05/19 02:35:15;;;;;;;1.47;0.90;;;21.80;85.10;;;;;;5031407;28;20458;-74
2022/05/19 02:37:44;;;;;;;1.50;0.90;;;21.80;85.00;;;;;;5026137;28;20457;-74
2022/05/19 02:40:13;;;;;;;1.47;0.90;;;21.80;85.00;;;;;;5026767;28;20478;-73
2022/05/19 02:42:40;;;;;;;1.43;0.90;;;21.80;84.90;;;;;;5031484;28;20466;-74
2022/05/19 02:45:10;;;;;;;1.43;0.90;;;21.80;85.20;;;;;;5030622;28;20459;-74
2022/05/19 02:47:38;;;;;;;1.50;0.90;;;21.80;85.10;;;;;;5030648;28;21026;-73
2022/05/19 02:50:06;;;;;;;1.50;0.97;;;21.70;85.10;;;;;;5031922;28;20475;-73
2022/05/19 02:52:33;;;;;;;1.47;0.90;;;21.70;85.00;;;;;;5000020;28;20482;-74
2022/05/19 02:55:00;;;;;;;1.47;0.90;;;21.70;85.00;;;;;;5028585;28;20489;-74
2022/05/19 02:57:27;;;;;;;1.47;0.90;;;21.70;85.10;;;;;;5030243;28;21140;-73
2022/05/19 02:59:54;;;;;;;1.43;0.90;;;21.70;85.20;;;;;;5031123;28;20651;-73
2022/05/19 03:02:22;;;;;;;1.43;0.90;;;21.70;84.80;;;;;;5030142;28;20952;-74
2022/05/19 03:04:49;;;;;;;1.43;0.90;;;21.60;85.20;;;;;;5025482;28;20471;-73
2022/05/19 03:07:17;;;;;;;1.50;0.90;;;21.60;85.40;;;;;;5024450;28;21000;-74
2022/05/19 03:09:45;;;;;;;1.50;0.90;;;21.60;85.30;;;;;;5021603;28;20490;-73
2022/05/19 03:12:12;;;;;;;1.43;0.90;;;21.50;85.80;;;;;;5026886;28;20971;-74
2022/05/19 03:14:39;;;;;;;1.50;0.90;;;21.50;85.60;;;;;;5030882;28;20482;-73
2022/05/19 03:17:07;;;;;;;1.50;0.97;;;21.50;85.80;;;;;;5027020;28;20509;-74
2022/05/19 03:19:36;;;;;;;1.47;0.90;;;21.40;85.80;;;;;;5030319;28;21160;-74
2022/05/19 03:22:03;;;;;;;1.40;0.90;;;21.40;86.10;;;;;;5019266;28;20478;-74
2022/05/19 03:24:30;;;;;;;1.47;0.90;;;21.30;86.20;;;;;;5029737;28;20459;-74
2022/05/19 03:26:58;;;;;;;1.50;1.00;;;21.30;86.00;;;;;;5028745;28;20523;-73
2022/05/19 03:29:25;;;;;;;1.50;0.90;;;21.30;86.10;;;;;;5025278;28;20460;-74
2022/05/19 03:31:52;;;;;;;1.50;0.90;;;21.30;86.20;;;;;;5022849;28;20550;-74
2022/05/19 03:34:20;;;;;;;1.50;1.00;;;21.20;86.10;;;;;;5028173;28;20546;-73
2022/05/19 03:36:49;;;;;;;1.47;0.90;;;21.20;86.30;;;;;;5020351;28;20844;-73
2022/05/19 03:39:16;;;;;;;1.50;1.00;;;21.20;86.40;;;;;;5029813;28;20966;-74
2022/05/19 03:41:42;;;;;;;1.50;0.90;;;21.20;86.40;;;;;;5029736;28;20762;-74
2022/05/19 03:44:09;;;;;;;1.50;1.00;;;21.20;86.40;;;;;;5029928;28;20463;-73
2022/05/19 03:46:36;;;;;;;1.47;0.90;;;21.10;86.40;;;;;;5023029;28;20486;-74
2022/05/19 03:49:04;;;;;;;1.47;0.90;;;21.10;86.20;;;;;;5030189;28;20506;-73
2022/05/19 03:51:33;;;;;;;1.47;0.90;;;21.10;86.10;;;;;;5004120;28;20485;-74
2022/05/19 03:54:01;;;;;;;1.87;1.27;;;21.10;86.20;;;;;;5012328;28;20467;-74
2022/05/19 03:56:28;;;;;;;1.50;0.90;;;21.10;86.50;;;;;;5016322;28;20553;-74
2022/05/19 03:58:55;;;;;;;1.47;0.90;;;21.10;86.20;;;;;;5029744;28;20459;-74
2022/05/19 04:01:22;;;;;;;1.47;0.90;;;21.10;86.60;;;;;;5028685;28;21055;-73
2022/05/19 04:03:50;;;;;;;1.47;0.90;;;21.10;86.70;;;;;;5028267;28;20849;-74
2022/05/19 04:06:18;;;;;;;1.43;0.90;;;21.10;86.70;;;;;;5026805;28;20467;-74
2022/05/19 04:08:45;;;;;;;1.50;0.90;;;21.10;86.80;;;;;;5022619;28;20518;-74
2022/05/19 04:11:13;;;;;;;1.50;0.90;;;21.10;86.80;;;;;;5028734;28;20514;-73
2022/05/19 04:13:41;;;;;;;1.43;0.90;;;21.10;86.60;;;;;;5029650;28;20489;-73
2022/05/19 04:16:08;;;;;;;1.40;0.90;;;21.10;86.40;;;;;;5029177;28;20495;-73
2022/05/19 04:18:34;;;;;;;1.40;0.90;;;21.10;86.40;;;;;;5029781;28;20459;-73
2022/05/19 04:21:01;;;;;;;1.50;0.90;;;21.10;86.10;;;;;;5028319;28;20714;-73
2022/05/19 04:23:28;;;;;;;1.47;0.90;;;21.10;86.30;;;;;;5031260;28;20465;-73
2022/05/19 04:25:56;;;;;;;1.47;0.90;;;21.20;86.30;;;;;;5029258;28;20472;-73
2022/05/19 04:28:24;;;;;;;1.43;0.90;;;21.20;86.30;;;;;;5024642;28;20479;-74
2022/05/19 04:30:51;;;;;;;1.47;0.90;;;21.30;86.40;;;;;;5020547;28;21026;-74
2022/05/19 04:33:18;;;;;;;1.50;1.00;;;21.30;86.00;;;;;;5021667;28;20482;-73
2022/05/19 04:35:44;;;;;;;1.43;0.87;;;21.30;86.20;;;;;;5020954;28;21485;-73
2022/05/19 04:38:13;;;;;;;1.47;0.90;;;21.30;86.30;;;;;;5024741;28;20465;-73
2022/05/19 04:40:42;;;;;;;1.47;0.90;;;21.40;86.00;;;;;;5023417;28;20483;-73
2022/05/19 04:43:10;;;;;;;1.40;0.90;;;21.40;86.20;;;;;;5022664;28;20459;-74
2022/05/19 04:45:38;;;;;;;1.47;0.90;;;21.50;85.90;;;;;;5021096;28;20473;-73
2022/05/19 04:48:06;;;;;;;1.43;0.90;;;21.50;86.00;;;;;;5024258;28;20483;-73
2022/05/19 04:50:32;;;;;;;1.47;0.90;;;21.50;86.20;;;;;;5027529;28;20483;-74
2022/05/19 04:53:00;;;;;;;1.87;1.00;;;21.50;85.60;;;;;;5026178;28;20470;-73
2022/05/19 04:55:27;;;;;;;1.43;0.90;;;21.70;85.70;;;;;;5026170;28;20470;-74
2022/05/19 04:57:54;;;;;;;1.47;0.90;;;21.70;85.60;;;;;;5028355;28;20460;-73
2022/05/19 05:00:22;;;;;;;1.40;0.90;;;21.80;85.60;;;;;;5027928;28;20509;-75
2022/05/19 05:02:50;;;;;;;1.50;0.90;;;21.80;85.30;;;;;;5023777;28;20932;-75
2022/05/19 05:05:17;;;;;;;1.50;0.90;;;21.80;85.40;;;;;;5023905;28;20817;-75
2022/05/19 05:07:44;;;;;;;1.43;0.80;;;21.90;85.20;;;;;;5016070;28;20493;-75
2022/05/19 05:10:11;;;;;;;1.50;1.30;;;21.90;85.20;;;;;;5022321;28;20491;-75
2022/05/19 05:12:38;;;;;;;1.50;0.90;;;21.90;85.20;;;;;;5027992;28;20459;-75
2022/05/19 05:15:06;;;;;;;1.53;1.03;;;22.00;85.10;;;;;;5027094;28;20475;-75
2022/05/19 05:17:32;;;;;;;1.43;0.90;;;22.00;84.90;;;;;;5025520;28;20971;-75
2022/05/19 05:20:01;;;;;;;1.50;0.90;;;22.10;84.90;;;;;;5027996;28;20522;-75
2022/05/19 05:22:30;;;;;;;1.50;0.90;;;22.10;84.70;;;;;;5027831;28;20466;-75
2022/05/19 05:24:56;;;;;;;1.47;0.90;;;22.20;84.60;;;;;;5027911;28;20533;-75
2022/05/19 05:27:24;;;;;;;3.97;1.30;;;22.30;84.30;;;;;;5018836;28;20494;-76
2022/05/19 05:29:51;;;;;;;1.50;0.90;;;22.50;84.10;;;;;;5023081;28;20510;-75
2022/05/19 05:32:17;;;;;;;1.50;0.90;;;22.70;83.70;;;;;;5023094;28;20931;-75
2022/05/19 05:34:44;;;;;;;1.50;0.90;;;23.00;82.90;;;;;;5018069;28;20463;-76
2022/05/19 05:37:12;;;;;;;1.47;0.90;;;23.20;82.80;;;;;;5017856;28;20455;-76
2022/05/19 05:39:39;;;;;;;1.50;0.90;;;23.30;81.30;;;;;;5024661;28;20486;-76
2022/05/19 05:42:07;;;;;;;1.47;0.90;;;23.40;81.00;;;;;;5026844;28;20974;-75
2022/05/19 05:44:34;;;;;;;1.50;0.90;;;23.30;81.00;;;;;;5026107;28;20471;-75
2022/05/19 05:47:01;;;;;;;1.47;0.90;;;23.30;80.90;;;;;;5026875;28;20537;-75
2022/05/19 05:49:28;;;;;;;1.43;0.90;;;23.10;81.40;;;;;;5025170;28;20558;-76
2022/05/19 05:51:55;;;;;;;1.50;0.90;;;23.00;81.60;;;;;;5022853;28;20645;-76
2022/05/19 05:54:23;;;;;;;1.40;0.80;;;23.00;82.00;;;;;;5027738;28;20966;-75
2022/05/19 05:56:50;;;;;;;1.43;0.90;;;23.00;82.60;;;;;;5020320;28;20459;-75
2022/05/19 05:59:17;;;;;;;1.60;1.20;;;22.90;83.70;;;;;;5027371;28;20458;-75
2022/05/19 06:01:44;;;;;;;1.50;0.90;;;22.90;84.20;;;;;;5026607;28;20459;-76
2022/05/19 06:04:11;;;;;;;1.47;0.90;;;22.80;84.80;;;;;;5023728;28;20456;-75
2022/05/19 06:06:38;;;;;;;1.50;0.90;;;22.90;85.30;;;;;;5029272;28;20455;-78
2022/05/19 06:09:04;;;;;;;1.50;0.90;;;23.00;85.60;;;;;;5019918;28;20484;-77
2022/05/19 06:11:33;;;;;;;1.47;0.90;;;23.10;85.00;;;;;;5030129;28;20487;-77
2022/05/19 06:13:59;;;;;;;1.43;0.90;;;23.10;84.90;;;;;;5028567;28;20849;-79
2022/05/19 06:16:26;;;;;;;1.50;0.90;;;23.20;84.40;;;;;;5025008;28;20491;-77
2022/05/19 06:18:53;;;;;;;1.43;0.90;;;23.30;84.60;;;;;;5024194;28;20835;-77
2022/05/19 06:21:21;;;;;;;1.50;0.90;;;23.50;83.60;;;;;;5022864;28;20499;-79
2022/05/19 06:23:48;;;;;;;1.50;0.90;;;23.70;83.00;;;;;;5024525;28;20468;-75
2022/05/19 06:26:15;;;;;;;1.47;0.90;;;23.90;83.00;;;;;;5031211;28;20477;-77
2022/05/19 06:28:43;;;;;;;1.50;0.90;;;24.20;83.40;;;;;;5028554;28;20495;-77
2022/05/19 06:31:10;;;;;;;1.47;0.90;;;24.70;81.60;;;;;;5026322;28;20865;-76
2022/05/19 06:33:37;;;;;;;1.47;0.90;;;24.90;79.90;;;;;;5029992;28;20467;-77
2022/05/19 06:36:04;;;;;;;1.50;0.90;;;25.00;79.70;;;;;;5024650;28;20483;-77
2022/05/19 06:38:32;;;;;;;1.50;0.90;;;25.00;79.50;;;;;;5019963;28;20463;-75
2022/05/19 06:43:40;;;;;;;1.50;0.90;;;25.20;79.10;;;;;;5013750;28;20463;-77
2022/05/19 06:46:08;;;;;;;1.50;0.80;;;25.30;78.40;;;;;;5024496;28;20473;-76
2022/05/19 06:48:35;;;;;;;1.43;0.87;;;25.20;78.40;;;;;;5028212;28;20497;-78
2022/05/19 06:51:01;;;;;;;1.60;1.20;;;25.30;78.40;;;;;;5026137;28;20483;-75
2022/05/19 06:53:29;;;;;;;1.70;1.10;;;25.30;78.50;;;;;;5030042;28;20502;-76
2022/05/19 06:55:56;;;;;;;1.50;0.90;;;25.20;78.60;;;;;;5024413;28;20555;-74
2022/05/19 06:58:23;;;;;;;1.43;0.80;;;25.30;78.30;;;;;;5027953;28;20463;-76
2022/05/19 07:00:49;;;;;;;1.50;1.00;;;25.40;77.90;;;;;;5029181;28;20479;-77
2022/05/19 07:03:17;;;;;;;1.50;0.90;;;25.30;78.40;;;;;;5023651;28;20467;-76
2022/05/19 07:05:45;;;;;;;1.60;1.20;;;25.20;78.50;;;;;;5022215;28;20458;-77
2022/05/19 07:08:13;;;;;;;1.47;0.90;;;25.20;78.10;;;;;;5018317;28;20510;-83
2022/05/19 07:10:39;;;;;;;1.50;0.87;;;25.20;78.50;;;;;;5017571;28;20964;-76
2022/05/19 07:13:07;;;;;;;1.50;0.90;;;25.30;78.20;;;;;;5024089;28;20467;-77
2022/05/19 07:15:35;;;;;;;1.47;0.83;;;25.30;78.10;;;;;;5029069;28;20463;-76
2022/05/19 07:18:01;;;;;;;1.47;0.90;;;25.60;78.20;;;;;;5032650;28;20462;-76
2022/05/19 07:20:43;;;;;;;1.43;0.90;;;25.70;76.80;;;;;;5028314;28;20485;-76
2022/05/19 07:23:14;;;;;;;1.50;1.10;;;25.90;76.60;;;;;;5026466;28;20546;-75
2022/05/19 07:25:41;;;;;;;1.50;0.90;;;26.10;76.00;;;;;;5028872;28;20550;-75
2022/05/19 07:28:08;;;;;;;1.43;0.90;;;26.30;75.20;;;;;;5029168;28;20511;-76
2022/05/19 07:30:36;;;;;;;1.50;0.90;;;26.40;75.00;;;;;;5032527;28;20491;-78
2022/05/19 07:33:03;;;;;;;1.47;0.90;;;26.60;74.90;;;;;;5032004;28;20463;-75
2022/05/19 07:35:31;;;;;;;1.50;0.90;;;26.80;74.30;;;;;;5023435;28;20542;-79
2022/05/19 07:37:58;;;;;;;1.47;0.80;;;26.80;73.90;;;;;;5022001;28;20459;-74
2022/05/19 07:40:26;;;;;;;1.50;0.90;;;26.60;74.40;;;;;;5032034;28;20478;-79
2022/05/19 07:42:52;;;;;;;1.50;0.80;;;26.50;74.20;;;;;;5033746;28;20463;-76
2022/05/19 07:45:19;;;;;;;1.47;0.87;;;26.40;74.60;;;;;;5031542;28;20467;-77
2022/05/19 07:47:46;;;;;;;1.50;1.10;;;26.40;74.40;;;;;;5006259;28;20986;-76
2022/05/19 07:50:13;;;;;;;1.47;0.80;;;26.50;74.40;;;;;;5034866;28;20495;-76
2022/05/19 07:52:42;;;;;;;1.47;0.80;;;26.50;74.20;;;;;;5033184;28;20465;-75
2022/05/19 07:55:10;;;;;;;1.43;0.80;;;26.50;74.70;;;;;;5028005;28;20974;-76
2022/05/19 07:57:38;;;;;;;1.47;0.90;;;26.60;74.50;;;;;;5022294;28;20494;-75
2022/05/19 08:00:07;;;;;;;1.50;0.80;;;26.60;74.40;;;;;;5032939;28;20482;-77
2022/05/19 08:02:34;;;;;;;1.47;0.80;;;26.90;74.20;;;;;;5031661;28;20467;-76
2022/05/19 08:05:01;;;;;;;1.50;0.90;;;27.00;73.70;;;;;;5032027;28;20529;-75
2022/05/19 08:07:28;;;;;;;1.40;0.80;;;27.30;73.50;;;;;;5024376;28;20467;-76
2022/05/19 08:15:38;;;;;;;1.43;0.83;;;27.90;71.60;;;;;;5033638;28;20482;-76
2022/05/19 08:18:08;;;;;;;1.50;0.90;;;28.10;71.50;;;;;;5024262;28;20478;-78
2022/05/19 08:20:39;;;;;;;1.40;0.80;;;28.20;71.10;;;;;;5029832;28;21071;-75
2022/05/19 08:23:06;;;;;;;1.40;0.80;;;28.30;70.80;;;;;;5019050;28;20462;-75
2022/05/19 08:25:35;;;;;;;1.50;1.00;;;28.50;70.90;;;;;;5026900;28;20825;-79
2022/05/19 08:28:02;;;;;;;1.40;0.80;;;28.70;70.30;;;;;;5031093;28;20455;-76
2022/05/19 08:30:28;;;;;;;1.40;0.80;;;28.80;70.10;;;;;;5030269;28;20510;-75
2022/05/19 08:32:55;;;;;;;1.47;0.80;;;29.00;68.50;;;;;;5023210;28;20472;-75
2022/05/19 08:35:22;;;;;;;1.40;0.80;;;29.00;68.70;;;;;;5029330;28;20494;-77
2022/05/19 08:37:50;;;;;;;1.47;0.80;;;29.20;68.90;;;;;;5020483;28;20489;-73
2022/05/19 08:40:18;;;;;;;1.43;0.80;;;29.40;68.60;;;;;;5020260;28;21049;-77
2022/05/19 08:42:51;;;;;;;1.47;0.80;;;29.50;68.30;;;;;;5027931;28;20545;-78
2022/05/19 08:45:23;;;;;;;1.47;0.80;;;29.70;67.80;;;;;;5027653;28;20554;-76
2022/05/19 08:47:55;;;;;;;1.43;0.80;;;29.80;68.40;;;;;;5000677;28;20934;-76
2022/05/19 08:50:31;;;;;;;1.50;0.80;;;29.80;68.00;;;;;;5029769;28;20561;-78
2022/05/19 08:52:58;;;;;;;1.47;0.80;;;29.70;68.40;;;;;;5023524;28;20648;-75
2022/05/19 08:55:26;;;;;;;1.47;0.90;;;29.50;68.10;;;;;;5031590;28;20546;-77
2022/05/19 08:58:03;;;;;;;1.43;0.80;;;29.30;68.50;;;;;;5022264;28;20502;-75
2022/05/19 09:00:37;;;;;;;1.40;0.90;;;29.40;69.00;;;;;;5029944;28;20577;-79
2022/05/19 09:03:16;;;;;;;2.33;1.47;;;29.50;69.00;;;;;;5024444;28;20467;-75
2022/05/19 09:06:16;;;;;;;1.43;0.80;;;29.60;68.40;;;;;;5026010;28;20455;-76
2022/05/19 09:09:02;;;;;;;2.60;2.40;;;29.50;68.80;;;;;;5019308;28;20489;-74
2022/05/19 09:11:39;;;;;;;1.40;0.80;;;29.40;68.10;;;;;;5021930;28;20557;-79
2022/05/19 09:14:18;;;;;;;1.43;0.80;;;29.60;67.60;;;;;;5029718;28;20471;-75
2022/05/19 09:16:45;;;;;;;1.43;0.80;;;29.50;67.50;;;;;;5030846;28;20459;-77
2022/05/19 09:19:17;;;;;;;1.40;0.80;;;29.60;67.50;;;;;;5031662;28;20817;-77
2022/05/19 09:21:45;;;;;;;1.40;0.80;;;29.70;67.50;;;;;;5006079;28;20545;-76
2022/05/19 09:24:12;;;;;;;1.50;0.80;;;29.80;67.30;;;;;;5021939;28;20473;-79
2022/05/19 09:26:49;;;;;;;1.80;1.47;;;29.80;66.60;;;;;;5027502;28;20494;-74
2022/05/19 09:29:20;;;;;;;1.43;0.80;;;29.70;66.30;;;;;;5020958;28;20949;-77
2022/05/19 09:31:50;;;;;;;1.40;0.90;;;29.70;66.30;;;;;;5023183;28;20459;-75
2022/05/19 09:34:18;;;;;;;1.43;0.80;;;29.60;66.50;;;;;;5031548;28;20918;-75
2022/05/19 09:37:06;;;;;;;1.43;0.80;;;29.70;67.00;;;;;;5016347;28;20479;-75
2022/05/19 09:39:45;;;;;;;1.40;0.80;;;29.90;66.70;;;;;;5018441;28;20467;-74
2022/05/19 09:42:16;;;;;;;1.50;0.90;;;30.00;66.80;;;;;;5019785;28;20539;-79
2022/05/19 09:44:50;;;;;;;2.00;1.27;;;30.30;66.80;;;;;;5019970;28;20469;-74
2022/05/19 09:47:20;;;;;;;1.40;0.80;;;30.50;65.70;;;;;;5029186;28;20462;-77
2022/05/19 09:49:54;;;;;;;1.47;0.80;;;30.70;66.50;;;;;;5029373;28;20491;-77
2022/05/19 09:52:26;;;;;;;1.47;0.80;;;31.00;65.50;;;;;;5028104;28;20482;-77
2022/05/19 09:54:56;;;;;;;1.47;0.80;;;31.00;64.50;;;;;;5030345;28;20593;-75
2022/05/19 09:57:27;;;;;;;1.50;1.00;;;30.80;65.40;;;;;;5029875;28;20459;-76
2022/05/19 10:00:02;;;;;;;1.43;0.87;;;30.60;66.30;;;;;;5021339;28;20483;-74
2022/05/19 10:02:35;;;;;;;1.47;0.80;;;30.70;66.00;;;;;;5021565;28;21001;-75
2022/05/19 10:05:19;;;;;;;1.40;0.80;;;30.80;64.20;;;;;;5028642;28;20970;-77
2022/05/19 10:07:49;;;;;;;1.40;0.80;;;31.10;64.60;;;;;;5018250;28;20555;-76
2022/05/19 10:10:24;;;;;;;1.43;0.80;;;31.30;64.90;;;;;;5026048;28;20494;-79
2022/05/19 10:12:51;;;;;;;1.40;0.80;;;31.70;64.50;;;;;;5022072;28;20207;-76
2022/05/19 10:15:22;;;;;;;1.50;0.80;;;31.90;62.90;;;;;;5029466;28;20481;-76
2022/05/19 10:18:02;;;;;;;1.43;0.80;;;32.10;63.70;;;;;;5029256;28;20631;-77
2022/05/19 10:20:32;;;;;;;1.50;0.80;;;32.20;62.30;;;;;;5027178;28;21006;-75
2022/05/19 10:23:17;;;;;;;1.40;0.80;;;32.20;62.30;;;;;;5022437;28;20266;-75
2022/05/19 10:26:02;;;;;;;1.40;0.80;;;31.80;62.20;;;;;;5025236;28;20543;-76
2022/05/19 10:31:37;;;;;;;1.40;0.80;;;31.10;63.40;;;;;;5022228;28;20582;-76
2022/05/19 10:34:32;;;;;;;1.40;0.80;;;31.10;63.50;;;;;;5030689;28;20493;-77
2022/05/19 10:37:07;;;;;;;1.70;1.20;;;31.10;63.60;;;;;;5018680;28;20556;-76
2022/05/19 10:39:52;;;;;;;1.50;1.00;;;31.10;63.80;;;;;;5022872;28;20577;-76
2022/05/19 10:42:25;;;;;;;1.47;0.80;;;31.20;62.90;;;;;;5027233;28;21014;-77
2022/05/19 10:45:13;;;;;;;1.43;0.80;;;31.20;63.60;;;;;;5028416;28;20857;-77
2022/05/19 10:47:53;;;;;;;1.47;0.80;;;31.40;64.20;;;;;;5023715;28;20970;-75
2022/05/19 10:50:32;;;;;;;1.57;1.10;;;31.70;62.60;;;;;;5030782;28;21064;-78
2022/05/19 10:53:16;;;;;;;1.70;1.37;;;31.80;63.30;;;;;;5032232;28;20958;-75
2022/05/19 10:55:52;;;;;;;1.40;0.80;;;32.00;62.80;;;;;;5033368;28;20493;-77
2022/05/19 10:58:42;;;;;;;1.47;0.90;;;31.90;62.60;;;;;;5000518;28;20901;-76
2022/05/19 11:01:19;;;;;;;1.40;0.80;;;31.90;62.00;;;;;;5020420;28;20963;-77
2022/05/19 11:04:02;;;;;;;1.60;1.10;;;31.90;63.50;;;;;;5024756;28;20538;-76
2022/05/19 11:06:57;;;;;;;1.43;0.80;;;32.20;62.90;;;;;;5022070;28;20543;-77
2022/05/19 11:09:35;;;;;;;1.47;0.80;;;32.40;61.60;;;;;;5012921;28;20236;-75
2022/05/19 11:12:10;;;;;;;1.43;0.80;;;32.60;61.20;;;;;;4994190;28;20235;-77
2022/05/19 11:14:55;;;;;;;1.60;1.33;;;32.50;60.70;;;;;;5014702;28;20205;-77
2022/05/19 11:17:29;;;;;;;1.40;0.80;;;32.30;62.10;;;;;;5016223;28;20892;-77
2022/05/19 11:20:03;;;;;;;1.70;1.33;;;32.50;62.00;;;;;;5027983;28;20609;-75
2022/05/19 11:22:35;;;;;;;1.47;0.83;;;32.90;60.90;;;;;;5030335;28;20308;-77
2022/05/19 11:28:04;;;;;;;2.23;1.77;;;33.10;61.70;;;;;;5016636;28;20667;-76
2022/05/19 11:30:37;;;;;;;1.50;0.90;;;33.50;60.70;;;;;;5021501;28;20242;-75
2022/05/19 11:33:10;;;;;;;1.40;0.80;;;33.60;60.00;;;;;;5028238;28;20567;-75
2022/05/19 11:35:41;;;;;;;1.90;1.60;;;33.20;60.30;;;;;;5028781;28;20199;-75
2022/05/19 11:38:16;;;;;;;1.40;0.80;;;33.00;61.20;;;;;;5019780;28;20210;-75
2022/05/19 11:40:49;;;;;;;1.40;0.80;;;32.80;61.30;;;;;;5028031;28;20223;-75
2022/05/19 11:43:22;;;;;;;1.50;1.03;;;32.60;61.70;;;;;;5027697;28;20664;-75
2022/05/19 11:45:54;;;;;;;1.83;1.67;;;32.90;61.50;;;;;;5012868;28;20740;-74
2022/05/19 11:57:13;;;;;;;1.50;1.10;;;32.70;62.50;;;;;;5024305;28;20265;-73
2022/05/19 11:59:40;;;;;;;1.60;1.00;;;33.00;61.70;;;;;;5025998;28;20235;-74
2022/05/19 12:02:10;;;;;;;1.40;0.80;;;33.20;61.60;;;;;;5026680;28;20209;-74
2022/05/19 12:04:41;;;;;;;2.73;1.20;;;33.20;61.60;;;;;;5028729;28;20227;-74
2022/05/19 12:07:22;;;;;;;1.40;0.80;;;33.00;61.60;;;;;;5015982;28;20448;-74
2022/05/19 12:09:53;;;;;;;1.40;0.80;;;32.90;61.90;;;;;;5022024;28;20439;-74
2022/05/19 12:12:24;;;;;;;1.47;0.90;;;33.30;61.40;;;;;;5020132;28;20204;-74
2022/05/19 12:15:05;;;;;;;1.40;0.80;;;33.50;61.60;;;;;;5020927;28;20235;-74
2022/05/19 12:17:34;;;;;;;1.40;0.80;;;33.70;60.30;;;;;;5022741;28;20204;-74
2022/05/19 12:20:03;;;;;;;1.43;0.80;;;33.40;60.50;;;;;;5027131;28;20293;-74
2022/05/19 12:22:37;;;;;;;1.40;0.80;;;33.00;61.10;;;;;;5021251;28;20215;-73
2022/05/19 12:25:16;;;;;;;1.50;0.90;;;32.70;62.10;;;;;;5028160;28;20218;-74
2022/05/19 12:27:54;;;;;;;1.40;0.80;;;32.50;62.80;;;;;;4996320;28;20224;-74
2022/05/19 12:33:23;;;;;;;1.40;0.80;;;31.90;64.20;;;;;;5021918;28;20211;-74
2022/05/19 12:35:52;;;;;;;1.43;0.90;;;32.20;64.40;;;;;;5024624;28;20203;-74
2022/05/19 12:38:31;;;;;;;1.40;0.80;;;32.70;64.10;;;;;;5019070;28;20212;-74
2022/05/19 12:41:00;;;;;;;1.43;0.80;;;32.80;62.60;;;;;;5024186;28;20251;-74
2022/05/19 12:43:37;;;;;;;1.40;0.80;;;32.70;62.90;;;;;;5026850;28;20313;-74
2022/05/19 12:46:06;;;;;;;1.40;0.80;;;32.60;63.50;;;;;;5018542;28;20219;-74
2022/05/19 12:49:13;;;;;;;1.60;1.47;;;32.60;63.20;;;;;;5024328;28;20258;-73
2022/05/19 12:51:57;;;;;;;3.10;2.33;;;32.70;64.00;;;;;;5026332;28;20224;-73
2022/05/19 12:54:27;;;;;;;1.43;0.90;;;32.60;63.90;;;;;;5027645;28;20679;-74
2022/05/19 12:57:19;;;;;;;1.40;0.80;;;32.40;63.80;;;;;;5025244;28;20231;-75
2022/05/19 12:59:50;;;;;;;1.43;0.80;;;32.10;64.30;;;;;;5025942;28;20224;-75
2022/05/19 13:02:26;;;;;;;1.40;0.80;;;31.70;65.10;;;;;;5025507;28;20993;-74
2022/05/19 13:04:57;;;;;;;1.47;0.80;;;31.60;65.70;;;;;;5027066;28;20560;-75
2022/05/19 13:07:28;;;;;;;1.40;0.80;;;31.60;65.90;;;;;;5012562;28;20464;-75
2022/05/19 13:10:06;;;;;;;1.47;0.90;;;31.50;66.30;;;;;;5019860;28;20544;-74
2022/05/19 13:12:46;;;;;;;1.40;0.80;;;31.50;66.70;;;;;;4991083;28;20480;-75
2022/05/19 13:15:22;;;;;;;1.70;1.17;;;31.50;66.10;;;;;;5025835;28;20488;-75
2022/05/19 13:17:51;;;;;;;1.43;0.80;;;31.40;66.30;;;;;;5025569;28;20463;-74
2022/05/19 13:20:23;;;;;;;3.20;2.80;;;30.50;66.90;;;;;;5026115;28;20491;-71
2022/05/19 13:22:53;;;;;;;1.47;0.80;;;29.30;73.30;;;;;;5027414;28;20459;-73
2022/05/19 13:25:22;;;;;;;1.60;1.23;;;27.70;78.40;;;;;;5027327;28;20458;-74
2022/05/19 13:30:53;;;;;;;1.47;0.80;;;25.60;90.10;;;;;;5024724;28;20504;-74
2022/05/19 13:33:23;;;;;;;1.40;0.80;;;25.00;92.50;;;;;;5024613;28;20516;-72
2022/05/19 13:36:03;;;;;;;1.50;0.90;;;24.70;94.00;;;;;;5021122;28;20458;-71